KSFF/SFF METAR and TAF weather

Enter ICAO airport designator
Station Type Date Time Source
KSFF METAR 2020/11/28 19:53 UTC NOAA

KSFF 281953Z 00000KT 10SM BKN060 07/M01 A3028 RMK AO2 SLP264 T00671011


Station Type Date Time Source
KSFF Decoded METAR 2020/11/28 19:53 UTC NOAA

FELTS FIELD, WA, United States (KSFF) 47-41N 117-19W 609M
Nov 28, 2020 - 02:53 PM EST / 2020.11.28 1953 UTC
Wind: Calm:0
Visibility: 10 mile(s):0
Sky conditions: mostly cloudy
Temperature: 44.1 F (6.7 C)
Dew Point: 30.0 F (-1.1 C)
Relative Humidity: 57%
Pressure (altimeter): 30.28 in. Hg (1025 hPa)
ob: KSFF 281953Z 00000KT 10SM BKN060 07/M01 A3028 RMK AO2 SLP264 T00671011
cycle: 20

Station Type Date Time Source
KSFF TAF 2020/11/28 18:22 UTC NOAA

TAF KSFF 281720Z 2818/2918 20002KT P6SM SCT030 BKN250
FM282000 21005KT P6SM SCT070 SCT100
FM290200 VRB02KT P6SM SCT015 BKN050
FM290600 09001KT P6SM OVC250
FM291200 VRB02KT P6SM OVC015

Example: see airport list